Time;durP1;ratioP1;P1;durP2;ratioP2;P2;SDS_P1;SDS_P2;PMS_P1;PMS_P2;Temp;Humidity;BMP_temperature;BMP_pressure;BME280_temperature;BME280_humidity;BME280_pressure;Samples;Min_cycle;Max_cycle;Signal;HPM_P1;HPM_P2
2022/06/22 00:00:07;;;;;;;15.10;9.23;;;;;;;;;;5080830;28;20473;-77
2022/06/22 00:02:35;;;;;;;13.13;8.27;;;;;;;;;;5079757;28;20044;-77
2022/06/22 00:05:06;;;;;;;13.82;7.88;;;;;;;;;;5079623;28;20036;-77
2022/06/22 00:07:36;;;;;;;13.52;7.38;;;;;;;;;;5079321;28;20047;-77
2022/06/22 00:10:14;;;;;;;13.82;7.60;;;;;;;;;;5062762;28;20033;-77
2022/06/22 00:12:40;;;;;;;13.48;7.05;;;;;;;;;;5064674;28;20036;-77
2022/06/22 00:15:39;;;;;;;11.15;6.82;;;;;;;;;;5080643;28;20071;-77
2022/06/22 00:18:21;;;;;;;12.30;7.30;;;;;;;;;;5038499;28;20041;-77
2022/06/22 00:20:55;;;;;;;9.30;6.30;;;;;;;;;;5080370;28;20366;-77
2022/06/22 00:23:26;;;;;;;12.18;6.70;;;;;;;;;;5079479;28;20087;-77
2022/06/22 00:25:58;;;;;;;12.07;7.22;;;;;;;;;;5062405;28;20044;-77
2022/06/22 00:28:28;;;;;;;11.95;6.78;;;;;;;;;;5063196;28;20093;-77
2022/06/22 00:30:59;;;;;;;10.80;6.28;;;;;;;;;;5062153;28;20128;-77
2022/06/22 00:33:25;;;;;;;13.73;8.00;;;;;;;;;;5079768;28;20080;-77
2022/06/22 00:35:53;;;;;;;14.90;8.10;;;;;;;;;;5080615;28;20076;-77
2022/06/22 00:38:33;;;;;;;20.58;8.93;;;;;;;;;;5078825;28;20459;-77
2022/06/22 00:41:02;;;;;;;13.65;8.57;;;;;;;;;;5061402;28;20046;-77
2022/06/22 00:43:31;;;;;;;15.05;8.30;;;;;;;;;;5063338;28;20049;-77
2022/06/22 00:45:57;;;;;;;15.48;9.80;;;;;;;;;;5079106;28;20087;-77
2022/06/22 00:48:23;;;;;;;11.50;7.97;;;;;;;;;;5063296;28;20403;-77
2022/06/22 00:51:09;;;;;;;12.23;7.28;;;;;;;;;;5063466;28;20127;-77
2022/06/22 00:53:42;;;;;;;12.50;7.55;;;;;;;;;;5081286;28;20036;-77
2022/06/22 00:56:11;;;;;;;9.52;6.50;;;;;;;;;;5078729;28;20540;-77
2022/06/22 00:58:56;;;;;;;13.02;7.50;;;;;;;;;;5064176;28;20638;-77
2022/06/22 01:01:42;;;;;;;14.82;7.30;;;;;;;;;;5062354;28;20075;-77
2022/06/22 01:04:12;;;;;;;9.95;6.82;;;;;;;;;;5079871;28;20048;-77
2022/06/22 01:06:42;;;;;;;11.27;5.60;;;;;;;;;;5061666;28;20500;-76
2022/06/22 01:09:16;;;;;;;7.75;5.28;;;;;;;;;;5062814;28;20048;-76
2022/06/22 01:14:35;;;;;;;8.55;4.32;;;;;;;;;;5080732;28;20036;-77
2022/06/22 01:17:02;;;;;;;6.95;4.55;;;;;;;;;;5078693;28;20032;-77
2022/06/22 01:19:28;;;;;;;7.10;4.90;;;;;;;;;;5078015;28;20041;-77
2022/06/22 01:22:10;;;;;;;6.18;4.32;;;;;;;;;;5062120;28;20097;-77
2022/06/22 01:24:47;;;;;;;1.55;1.33;;;;;;;;;;5078138;28;20039;-76
2022/06/22 01:27:20;;;;;;;7.72;3.80;;;;;;;;;;5063598;28;20089;-76
2022/06/22 01:29:49;;;;;;;6.00;3.72;;;;;;;;;;5079291;28;20492;-77
2022/06/22 01:32:16;;;;;;;10.95;4.90;;;;;;;;;;5078557;28;20083;-76
2022/06/22 01:34:43;;;;;;;10.95;6.53;;;;;;;;;;5063135;28;20675;-77
2022/06/22 01:37:18;;;;;;;11.07;5.85;;;;;;;;;;5079772;28;20107;-76
2022/06/22 01:39:44;;;;;;;8.13;5.35;;;;;;;;;;5078903;28;20316;-77
2022/06/22 01:42:22;;;;;;;10.00;5.35;;;;;;;;;;5061826;28;20059;-77
2022/06/22 01:44:55;;;;;;;7.00;4.72;;;;;;;;;;5068380;28;20126;-77
2022/06/22 01:47:36;;;;;;;8.13;5.20;;;;;;;;;;5082260;28;20036;-77
2022/06/22 01:50:02;;;;;;;10.48;4.68;;;;;;;;;;5067070;28;20032;-77
2022/06/22 01:52:47;;;;;;;7.45;4.40;;;;;;;;;;5066356;28;20484;-77
2022/06/22 01:55:33;;;;;;;16.20;6.57;;;;;;;;;;5084213;28;20048;-77
2022/06/22 01:57:59;;;;;;;36.72;7.75;;;;;;;;;;5057418;28;20130;-77
2022/06/22 02:00:25;;;;;;;19.63;5.95;;;;;;;;;;5066277;28;20140;-76
2022/06/22 02:02:54;;;;;;;23.13;6.72;;;;;;;;;;5065598;28;20032;-77
2022/06/22 02:05:38;;;;;;;26.17;5.50;;;;;;;;;;5081699;28;20040;-76
2022/06/22 02:08:10;;;;;;;13.48;6.55;;;;;;;;;;5066908;28;20047;-76
2022/06/22 02:10:45;;;;;;;13.85;7.50;;;;;;;;;;5078159;28;20063;-76
2022/06/22 02:13:31;;;;;;;18.50;8.93;;;;;;;;;;5073037;28;20033;-76
2022/06/22 02:16:14;;;;;;;22.98;11.10;;;;;;;;;;5056182;28;20382;-76
2022/06/22 02:18:50;;;;;;;21.13;12.02;;;;;;;;;;5072800;28;20040;-76
2022/06/22 02:21:19;;;;;;;29.85;14.95;;;;;;;;;;5072960;28;20040;-76
2022/06/22 02:23:47;;;;;;;28.10;15.68;;;;;;;;;;5055924;28;20040;-76
2022/06/22 02:26:16;;;;;;;26.80;14.75;;;;;;;;;;5055858;28;20139;-76
2022/06/22 02:28:43;;;;;;;10.77;6.50;;;;;;;;;;5072578;28;20048;-76
2022/06/22 02:31:10;;;;;;;22.20;7.45;;;;;;;;;;5055756;28;20114;-76
2022/06/22 02:33:38;;;;;;;17.45;8.02;;;;;;;;;;5055716;28;20040;-76
2022/06/22 02:36:04;;;;;;;21.85;7.00;;;;;;;;;;5072706;28;20480;-76
2022/06/22 02:38:30;;;;;;;26.88;6.88;;;;;;;;;;5055521;28;20479;-76
2022/06/22 02:46:32;;;;;;;12.38;4.85;;;;;;;;;;5072349;28;20044;-77
2022/06/22 02:49:01;;;;;;;10.27;4.97;;;;;;;;;;5055661;28;20044;-76
2022/06/22 02:51:29;;;;;;;17.60;5.03;;;;;;;;;;5055311;28;20040;-77
2022/06/22 02:53:57;;;;;;;11.93;6.07;;;;;;;;;;5072025;28;20072;-76
2022/06/22 02:56:28;;;;;;;14.35;6.28;;;;;;;;;;5071515;28;20090;-76
2022/06/22 02:58:54;;;;;;;;;;;;;;;;;;5072383;28;20117;-76
2022/06/22 03:01:23;;;;;;;12.05;6.75;;;;;;;;;;5055235;28;19920;-76
2022/06/22 03:03:54;;;;;;;12.95;7.15;;;;;;;;;;5065220;28;20040;-76
2022/06/22 03:06:20;;;;;;;;;;;;;;;;;;5067245;28;20047;-76
2022/06/22 03:08:46;;;;;;;12.93;7.60;;;;;;;;;;5064938;28;19916;-76
2022/06/22 03:11:12;;;;;;;10.88;6.30;;;;;;;;;;5081913;28;20048;-76
2022/06/22 03:13:38;;;;;;;18.42;6.57;;;;;;;;;;5063565;28;20040;-76
2022/06/22 03:16:05;;;;;;;18.27;7.93;;;;;;;;;;5064796;28;20509;-76
2022/06/22 03:18:31;;;;;;;18.42;9.35;;;;;;;;;;5081855;28;20044;-75
2022/06/22 03:20:59;;;;;;;15.52;7.93;;;;;;;;;;5080150;28;20036;-76
2022/06/22 03:23:29;;;;;;;35.60;8.15;;;;;;;;;;5064813;28;20051;-76
2022/06/22 03:26:00;;;;;;;16.27;6.90;;;;;;;;;;5065470;28;20569;-76
2022/06/22 03:28:31;;;;;;;15.65;6.75;;;;;;;;;;5064519;28;20182;-75
2022/06/22 03:30:59;;;;;;;30.08;7.28;;;;;;;;;;5082081;28;20077;-75
2022/06/22 03:33:29;;;;;;;26.60;7.15;;;;;;;;;;5071444;28;20041;-76
2022/06/22 03:35:57;;;;;;;32.97;7.57;;;;;;;;;;5071715;28;20040;-75
2022/06/22 03:38:28;;;;;;;25.58;7.00;;;;;;;;;;5070975;28;20125;-76
2022/06/22 03:41:02;;;;;;;28.93;6.93;;;;;;;;;;5071180;28;20040;-76
2022/06/22 03:43:31;;;;;;;27.42;6.70;;;;;;;;;;5071242;28;20419;-76
2022/06/22 03:45:58;;;;;;;20.50;5.72;;;;;;;;;;5054398;28;20131;-76
2022/06/22 03:48:28;;;;;;;25.42;6.13;;;;;;;;;;5054607;28;20055;-75
2022/06/22 03:50:56;;;;;;;22.77;6.45;;;;;;;;;;5071164;28;20090;-76
2022/06/22 03:53:25;;;;;;;46.80;7.07;;;;;;;;;;5054551;28;20571;-76
2022/06/22 03:55:53;;;;;;;39.95;6.03;;;;;;;;;;5054281;28;20068;-75
2022/06/22 03:58:21;;;;;;;13.30;5.07;;;;;;;;;;5071127;28;20037;-75
2022/06/22 04:00:47;;;;;;;19.42;5.05;;;;;;;;;;5070833;28;20048;-75
2022/06/22 04:03:14;;;;;;;17.55;6.13;;;;;;;;;;5070942;28;20048;-75
2022/06/22 04:05:51;;;;;;;9.52;5.05;;;;;;;;;;5070733;28;20488;-75
2022/06/22 04:08:25;;;;;;;8.93;4.55;;;;;;;;;;5069758;28;20095;-75
2022/06/22 04:10:54;;;;;;;8.13;4.43;;;;;;;;;;5070562;28;20050;-75
2022/06/22 04:13:22;;;;;;;8.23;4.28;;;;;;;;;;5070672;28;20059;-75
2022/06/22 04:16:01;;;;;;;6.40;4.38;;;;;;;;;;5070608;28;20036;-75
2022/06/22 04:18:33;;;;;;;5.72;3.80;;;;;;;;;;5070811;28;20079;-75
2022/06/22 04:21:02;;;;;;;7.95;4.03;;;;;;;;;;5070840;28;20040;-75
2022/06/22 04:23:34;;;;;;;29.50;5.05;;;;;;;;;;5054080;28;20044;-75
2022/06/22 04:26:03;;;;;;;8.40;4.47;;;;;;;;;;5070441;28;20036;-75
2022/06/22 04:28:31;;;;;;;8.82;4.32;;;;;;;;;;5070269;28;20079;-76
2022/06/22 04:30:58;;;;;;;10.95;4.65;;;;;;;;;;5053476;28;20041;-76
2022/06/22 04:33:33;;;;;;;12.02;4.93;;;;;;;;;;5053706;28;20397;-76
2022/06/22 04:36:14;;;;;;;11.52;4.03;;;;;;;;;;5070247;28;20045;-75
2022/06/22 04:38:42;;;;;;;13.95;5.28;;;;;;;;;;5069952;28;20496;-75
2022/06/22 04:41:14;;;;;;;7.80;5.38;;;;;;;;;;5070142;28;20100;-75
2022/06/22 04:43:41;;;;;;;9.25;4.60;;;;;;;;;;5070381;28;20044;-75
2022/06/22 04:46:09;;;;;;;9.50;4.88;;;;;;;;;;5053567;28;20044;-75
2022/06/22 04:48:39;;;;;;;12.38;5.78;;;;;;;;;;5070331;28;20089;-75
2022/06/22 04:51:06;;;;;;;9.15;6.32;;;;;;;;;;5053501;28;20047;-75
2022/06/22 04:53:39;;;;;;;9.20;4.97;;;;;;;;;;5070541;28;20041;-75
2022/06/22 04:56:07;;;;;;;9.35;5.95;;;;;;;;;;5054259;28;20044;-75
2022/06/22 04:58:34;;;;;;;11.77;6.65;;;;;;;;;;5069062;28;20047;-75
2022/06/22 05:01:00;;;;;;;8.80;5.65;;;;;;;;;;5051580;28;20853;-75
2022/06/22 05:03:27;;;;;;;13.25;6.75;;;;;;;;;;5066200;28;20470;-75
2022/06/22 05:05:54;;;;;;;14.10;7.18;;;;;;;;;;5049687;28;20048;-75
2022/06/22 05:08:25;;;;;;;13.13;7.57;;;;;;;;;;5050149;28;20102;-75
2022/06/22 05:11:00;;;;;;;14.18;8.18;;;;;;;;;;5066517;28;20496;-75
2022/06/22 05:13:26;;;;;;;16.73;8.18;;;;;;;;;;5066411;28;20480;-76
2022/06/22 05:15:53;;;;;;;15.65;7.63;;;;;;;;;;5066463;28;20097;-75
2022/06/22 05:18:23;;;;;;;13.50;7.07;;;;;;;;;;5050251;28;20558;-76
2022/06/22 05:21:01;;;;;;;13.23;7.97;;;;;;;;;;5070654;28;20501;-75
2022/06/22 05:23:28;;;;;;;12.13;7.90;;;;;;;;;;5070324;28;20091;-75
2022/06/22 05:25:56;;;;;;;12.02;9.00;;;;;;;;;;5072085;28;20462;-76
2022/06/22 05:28:28;;;;;;;12.23;7.40;;;;;;;;;;5056985;28;20037;-76
2022/06/22 05:31:03;;;;;;;11.10;7.93;;;;;;;;;;5056924;28;20044;-76
2022/06/22 05:33:29;;;;;;;12.25;7.60;;;;;;;;;;5056991;28;20044;-76
2022/06/22 05:35:58;;;;;;;13.35;8.45;;;;;;;;;;5056803;28;20127;-76
2022/06/22 05:38:25;;;;;;;13.77;8.48;;;;;;;;;;5056841;28;20056;-76
2022/06/22 05:40:53;;;;;;;12.27;7.55;;;;;;;;;;5056973;28;20091;-77
2022/06/22 05:43:19;;;;;;;11.43;7.72;;;;;;;;;;5073395;28;20467;-77
2022/06/22 05:45:50;;;;;;;11.57;8.45;;;;;;;;;;5083455;28;20068;-77
2022/06/22 05:48:23;;;;;;;11.02;7.88;;;;;;;;;;5082454;28;20070;-77
2022/06/22 05:51:01;;;;;;;11.40;8.27;;;;;;;;;;5082453;28;20098;-77
2022/06/22 05:53:34;;;;;;;12.73;8.90;;;;;;;;;;5083046;28;20052;-78
2022/06/22 05:56:03;;;;;;;11.43;9.95;;;;;;;;;;5066592;28;20052;-78
2022/06/22 05:58:48;;;;;;;11.38;10.23;;;;;;;;;;5065815;28;20163;-77
2022/06/22 06:01:17;;;;;;;10.73;9.38;;;;;;;;;;5084577;28;20582;-77
2022/06/22 06:03:46;;;;;;;10.48;9.48;;;;;;;;;;5083138;28;20452;-77
2022/06/22 06:06:24;;;;;;;11.45;9.30;;;;;;;;;;5065075;28;20107;-77
2022/06/22 06:08:53;;;;;;;9.75;8.85;;;;;;;;;;5064737;28;20052;-77
2022/06/22 06:11:23;;;;;;;10.73;9.10;;;;;;;;;;5066115;28;20040;-77
2022/06/22 06:13:51;;;;;;;9.60;8.65;;;;;;;;;;5083503;28;20028;-77
2022/06/22 06:16:24;;;;;;;11.25;9.05;;;;;;;;;;5066703;28;20047;-77
2022/06/22 06:18:51;;;;;;;11.70;7.97;;;;;;;;;;5066616;28;20032;-77
2022/06/22 06:21:19;;;;;;;13.77;7.25;;;;;;;;;;5081730;28;20123;-77
2022/06/22 06:23:54;;;;;;;8.35;6.43;;;;;;;;;;5065175;28;20048;-76
2022/06/22 06:29:17;;;;;;;10.20;6.90;;;;;;;;;;5083339;28;20032;-78
2022/06/22 06:31:52;;;;;;;8.07;7.03;;;;;;;;;;5064777;28;20040;-78
2022/06/22 06:34:21;;;;;;;9.27;6.30;;;;;;;;;;5066584;28;20561;-78
2022/06/22 06:37:14;;;;;;;8.13;7.00;;;;;;;;;;5066112;28;20111;-78
2022/06/22 06:39:47;;;;;;;10.57;6.13;;;;;;;;;;5062103;28;20411;-77
2022/06/22 06:42:34;;;;;;;7.20;5.50;;;;;;;;;;5066236;28;20478;-77
2022/06/22 06:45:00;;;;;;;7.22;6.18;;;;;;;;;;5066709;28;20033;-77
2022/06/22 06:47:30;;;;;;;8.55;5.82;;;;;;;;;;5064833;28;20040;-77
2022/06/22 06:50:01;;;;;;;8.48;5.93;;;;;;;;;;5064248;28;20040;-78
2022/06/22 06:52:40;;;;;;;6.43;5.10;;;;;;;;;;5064658;28;20036;-77
2022/06/22 06:55:06;;;;;;;8.02;4.75;;;;;;;;;;5091077;28;20036;-77
2022/06/22 06:57:34;;;;;;;6.97;5.05;;;;;;;;;;5075690;28;20047;-78
2022/06/22 07:00:02;;;;;;;6.40;4.72;;;;;;;;;;5075556;28;20453;-78
2022/06/22 07:02:32;;;;;;;6.53;4.72;;;;;;;;;;5092014;28;20411;-78
2022/06/22 07:04:59;;;;;;;10.55;4.68;;;;;;;;;;5092179;28;20043;-77
2022/06/22 07:07:44;;;;;;;5.07;4.25;;;;;;;;;;5092038;28;20400;-78
2022/06/22 07:10:29;;;;;;;6.65;4.40;;;;;;;;;;5077041;28;20058;-76
2022/06/22 07:12:57;;;;;;;7.35;4.70;;;;;;;;;;5092361;28;20597;-78
2022/06/22 07:15:28;;;;;;;5.65;4.40;;;;;;;;;;5092307;28;20047;-77
2022/06/22 07:17:55;;;;;;;7.75;4.03;;;;;;;;;;5075243;28;20032;-77
2022/06/22 07:20:26;;;;;;;4.53;3.88;;;;;;;;;;5091888;28;20502;-78
2022/06/22 07:22:59;;;;;;;5.53;4.07;;;;;;;;;;5092038;28;20048;-77
2022/06/22 07:25:30;;;;;;;5.95;4.13;;;;;;;;;;5091740;28;20119;-78
2022/06/22 07:28:00;;;;;;;5.72;4.00;;;;;;;;;;5091702;28;20047;-77
2022/06/22 07:30:59;;;;;;;6.68;3.88;;;;;;;;;;5091669;28;20051;-78
2022/06/22 07:33:43;;;;;;;9.38;4.60;;;;;;;;;;5059691;28;20395;-78
2022/06/22 07:36:39;;;;;;;8.70;4.70;;;;;;;;;;5098931;28;20075;-78
2022/06/22 07:39:10;;;;;;;6.22;4.78;;;;;;;;;;5079252;28;20057;-78
2022/06/22 07:41:37;;;;;;;6.50;4.43;;;;;;;;;;5092091;28;20060;-78
2022/06/22 07:44:05;;;;;;;6.55;4.43;;;;;;;;;;5092821;28;20043;-77
2022/06/22 07:46:54;;;;;;;6.90;5.07;;;;;;;;;;5091293;28;20396;-78
2022/06/22 07:49:26;;;;;;;10.00;5.10;;;;;;;;;;5066425;28;20106;-77
2022/06/22 07:51:54;;;;;;;9.15;4.90;;;;;;;;;;5074330;28;20076;-78
2022/06/22 07:54:27;;;;;;;12.25;5.28;;;;;;;;;;5074250;28;20032;-77
2022/06/22 07:57:15;;;;;;;7.03;4.50;;;;;;;;;;5091152;28;20400;-78
2022/06/22 07:59:48;;;;;;;9.90;4.55;;;;;;;;;;5074209;28;20040;-78
2022/06/22 08:02:26;;;;;;;8.02;4.45;;;;;;;;;;5091290;28;20032;-78
2022/06/22 08:04:54;;;;;;;6.63;3.97;;;;;;;;;;5091199;28;20032;-77
2022/06/22 08:07:30;;;;;;;8.23;4.25;;;;;;;;;;5065325;28;20041;-77
2022/06/22 08:10:03;;;;;;;5.47;3.80;;;;;;;;;;5058835;28;20123;-78
2022/06/22 08:12:32;;;;;;;8.30;4.47;;;;;;;;;;5079577;28;20060;-78
2022/06/22 08:15:00;;;;;;;6.35;4.03;;;;;;;;;;5064185;28;20070;-78
2022/06/22 08:17:45;;;;;;;4.88;3.38;;;;;;;;;;5081570;28;20033;-78
2022/06/22 08:20:16;;;;;;;9.07;3.85;;;;;;;;;;5078878;28;20033;-78
2022/06/22 08:22:44;;;;;;;7.13;4.00;;;;;;;;;;5078858;28;20553;-78
2022/06/22 08:25:10;;;;;;;8.55;3.92;;;;;;;;;;5082019;28;20147;-78
2022/06/22 08:27:37;;;;;;;7.70;3.72;;;;;;;;;;5065315;28;20040;-77
2022/06/22 08:30:04;;;;;;;6.90;3.20;;;;;;;;;;5061287;28;20122;-78
2022/06/22 08:32:43;;;;;;;4.05;3.55;;;;;;;;;;5063089;28;20058;-77
2022/06/22 08:35:12;;;;;;;6.47;4.22;;;;;;;;;;5078253;28;20119;-77
2022/06/22 08:37:41;;;;;;;5.97;3.42;;;;;;;;;;5078488;28;20036;-77
2022/06/22 08:40:06;;;;;;;6.85;3.40;;;;;;;;;;5080057;28;20048;-77
2022/06/22 08:42:43;;;;;;;4.80;2.92;;;;;;;;;;5078653;28;20429;-77
2022/06/22 08:45:19;;;;;;;5.03;3.20;;;;;;;;;;5078378;28;20476;-77
2022/06/22 08:47:57;;;;;;;5.28;2.90;;;;;;;;;;5078099;28;20099;-77
2022/06/22 08:50:33;;;;;;;5.45;3.05;;;;;;;;;;5078079;28;20040;-78
2022/06/22 08:53:05;;;;;;;4.07;2.88;;;;;;;;;;5078937;28;20037;-78
2022/06/22 08:55:43;;;;;;;3.85;3.20;;;;;;;;;;5063393;28;20032;-77
2022/06/22 08:58:15;;;;;;;4.45;2.90;;;;;;;;;;5061328;28;20036;-77
2022/06/22 09:00:46;;;;;;;6.53;3.38;;;;;;;;;;5061569;28;20131;-78
2022/06/22 09:03:15;;;;;;;5.10;2.85;;;;;;;;;;5062161;28;20055;-75
2022/06/22 09:05:53;;;;;;;9.00;3.78;;;;;;;;;;5061443;28;20036;-77
2022/06/22 09:08:19;;;;;;;8.02;3.75;;;;;;;;;;5079474;28;20048;-77
2022/06/22 09:10:51;;;;;;;6.03;3.35;;;;;;;;;;5061440;28;20043;-78
2022/06/22 09:13:21;;;;;;;5.07;3.08;;;;;;;;;;5079165;28;20055;-77
2022/06/22 09:16:06;;;;;;;4.45;2.70;;;;;;;;;;5079539;28;20039;-77
2022/06/22 09:18:38;;;;;;;5.85;3.30;;;;;;;;;;5061802;28;20078;-77
2022/06/22 09:21:11;;;;;;;5.47;3.10;;;;;;;;;;5077560;28;20041;-78
2022/06/22 09:23:45;;;;;;;11.50;3.45;;;;;;;;;;5078358;28;20500;-77
2022/06/22 09:26:30;;;;;;;4.45;3.22;;;;;;;;;;5078087;28;20404;-76
2022/06/22 09:28:58;;;;;;;4.38;3.30;;;;;;;;;;5080014;28;20377;-77
2022/06/22 09:31:34;;;;;;;6.15;3.03;;;;;;;;;;5077766;28;20037;-77
2022/06/22 09:34:00;;;;;;;4.82;3.25;;;;;;;;;;5078168;28;20484;-77
2022/06/22 09:36:41;;;;;;;6.70;3.63;;;;;;;;;;5062777;28;20071;-78
2022/06/22 09:39:20;;;;;;;4.97;3.40;;;;;;;;;;5062720;28;20131;-77
2022/06/22 09:41:46;;;;;;;5.53;3.17;;;;;;;;;;5062786;28;20119;-76
2022/06/22 09:44:27;;;;;;;9.23;3.63;;;;;;;;;;5061157;28;20032;-76
2022/06/22 09:47:12;;;;;;;6.15;3.88;;;;;;;;;;5063002;28;20039;-77
2022/06/22 09:49:47;;;;;;;6.53;3.95;;;;;;;;;;5078751;28;20087;-76
2022/06/22 09:52:22;;;;;;;6.78;3.80;;;;;;;;;;5062036;28;20419;-77
2022/06/22 09:58:14;;;;;;;5.63;3.65;;;;;;;;;;5077738;28;20040;-77
2022/06/22 10:00:46;;;;;;;5.30;3.60;;;;;;;;;;5078868;28;20370;-76
2022/06/22 10:03:31;;;;;;;6.70;3.47;;;;;;;;;;5062869;28;20039;-74
2022/06/22 10:05:57;;;;;;;4.55;3.55;;;;;;;;;;5079918;28;20110;-76
2022/06/22 10:08:36;;;;;;;5.80;3.60;;;;;;;;;;5064325;28;20141;-76
2022/06/22 10:11:14;;;;;;;6.05;3.60;;;;;;;;;;5066089;28;20047;-75
2022/06/22 10:13:46;;;;;;;6.80;4.30;;;;;;;;;;5082607;28;20056;-76
2022/06/22 10:16:19;;;;;;;5.18;3.63;;;;;;;;;;5066009;28;20111;-76
2022/06/22 10:18:48;;;;;;;7.05;3.95;;;;;;;;;;5082880;28;20114;-75
2022/06/22 10:21:33;;;;;;;8.45;4.90;;;;;;;;;;5065311;28;20348;-75
2022/06/22 10:24:01;;;;;;;8.13;4.18;;;;;;;;;;5066045;28;20047;-75
2022/06/22 10:26:41;;;;;;;6.57;4.50;;;;;;;;;;5072805;28;20040;-75
2022/06/22 10:29:07;;;;;;;5.82;4.75;;;;;;;;;;5066598;28;20040;-75
2022/06/22 10:31:36;;;;;;;7.25;5.10;;;;;;;;;;5081180;28;20481;-76
2022/06/22 10:34:06;;;;;;;5.18;4.30;;;;;;;;;;5081088;28;20040;-77
2022/06/22 10:36:32;;;;;;;7.15;4.35;;;;;;;;;;5065256;28;20032;-76
2022/06/22 10:39:17;;;;;;;8.32;4.18;;;;;;;;;;5081193;28;20507;-77
2022/06/22 10:47:37;;;;;;;7.30;3.47;;;;;;;;;;5081966;28;20449;-74
2022/06/22 10:50:06;;;;;;;5.85;3.85;;;;;;;;;;5081745;28;20040;-74
2022/06/22 10:52:50;;;;;;;7.97;3.63;;;;;;;;;;5080532;28;20050;-75
2022/06/22 10:55:35;;;;;;;7.53;4.95;;;;;;;;;;5065376;28;20052;-76
2022/06/22 10:58:04;;;;;;;6.13;4.22;;;;;;;;;;5080899;28;20048;-76
2022/06/22 11:00:58;;;;;;;7.25;4.30;;;;;;;;;;5080078;28;20396;-76
2022/06/22 11:03:34;;;;;;;8.27;4.43;;;;;;;;;;5065181;28;20047;-76
2022/06/22 11:06:12;;;;;;;6.68;3.95;;;;;;;;;;5081111;28;20040;-76
2022/06/22 11:08:43;;;;;;;5.18;4.10;;;;;;;;;;5081015;28;20033;-76
2022/06/22 11:11:09;;;;;;;9.05;4.45;;;;;;;;;;5063846;28;20127;-76
2022/06/22 11:13:44;;;;;;;7.25;4.50;;;;;;;;;;5081721;28;20127;-76
2022/06/22 11:16:31;;;;;;;7.18;4.93;;;;;;;;;;5081001;28;20074;-76
2022/06/22 11:19:08;;;;;;;9.25;4.53;;;;;;;;;;5080400;28;20117;-75
2022/06/22 11:21:46;;;;;;;7.90;5.30;;;;;;;;;;5064298;28;20101;-77
2022/06/22 11:24:31;;;;;;;7.07;5.13;;;;;;;;;;5079645;28;20113;-76
2022/06/22 11:33:13;;;;;;;7.60;4.60;;;;;;;;;;5079837;28;20040;-75
2022/06/22 11:35:42;;;;;;;9.27;4.78;;;;;;;;;;5080283;28;20109;-73
2022/06/22 11:38:27;;;;;;;5.70;4.13;;;;;;;;;;5078924;28;20431;-74
2022/06/22 11:41:12;;;;;;;8.70;4.80;;;;;;;;;;5078387;28;20181;-75
2022/06/22 11:43:56;;;;;;;6.07;4.18;;;;;;;;;;5079942;28;20074;-75
2022/06/22 11:46:36;;;;;;;5.57;4.00;;;;;;;;;;5064045;28;20434;-75
2022/06/22 11:49:21;;;;;;;6.82;4.05;;;;;;;;;;5065510;28;20075;-76
2022/06/22 11:52:00;;;;;;;7.72;4.13;;;;;;;;;;5080933;28;20085;-75
2022/06/22 11:54:44;;;;;;;5.97;3.50;;;;;;;;;;5081480;28;20051;-75
2022/06/22 11:57:19;;;;;;;6.72;5.20;;;;;;;;;;5080382;28;20424;-76
2022/06/22 12:00:02;;;;;;;5.88;4.75;;;;;;;;;;5062132;28;20040;-75
2022/06/22 12:02:31;;;;;;;6.35;4.55;;;;;;;;;;5061493;28;20041;-75
2022/06/22 12:05:10;;;;;;;9.27;4.20;;;;;;;;;;5063163;28;20394;-75
2022/06/22 12:07:44;;;;;;;7.55;4.57;;;;;;;;;;5079172;28;20274;-76
2022/06/22 12:10:09;;;;;;;7.10;5.68;;;;;;;;;;5078255;28;20629;-76
2022/06/22 12:12:46;;;;;;;7.15;4.88;;;;;;;;;;5080061;28;20161;-75
2022/06/22 12:15:34;;;;;;;6.57;4.25;;;;;;;;;;5061806;28;20036;-76
2022/06/22 12:18:16;;;;;;;9.95;6.47;;;;;;;;;;5063694;28;20032;-75
2022/06/22 12:20:45;;;;;;;8.05;6.18;;;;;;;;;;5075282;28;20040;-75
2022/06/22 12:23:25;;;;;;;8.60;6.72;;;;;;;;;;5053662;28;20408;-74
2022/06/22 12:25:57;;;;;;;9.60;5.80;;;;;;;;;;5070891;28;20055;-76
2022/06/22 12:28:26;;;;;;;8.38;5.70;;;;;;;;;;5053074;28;20407;-75
2022/06/22 12:30:52;;;;;;;7.30;5.68;;;;;;;;;;5070708;28;20109;-74
2022/06/22 12:33:21;;;;;;;7.97;5.95;;;;;;;;;;5070340;28;20040;-75
2022/06/22 12:35:51;;;;;;;6.80;5.00;;;;;;;;;;5070285;28;20527;-75
2022/06/22 12:38:17;;;;;;;6.90;4.75;;;;;;;;;;5070332;28;20049;-75
2022/06/22 12:40:51;;;;;;;6.13;4.70;;;;;;;;;;5070742;28;20055;-76
2022/06/22 12:43:20;;;;;;;6.68;4.43;;;;;;;;;;5053781;28;20225;-75
2022/06/22 12:45:56;;;;;;;7.07;5.10;;;;;;;;;;5070824;28;20186;-76
2022/06/22 12:48:31;;;;;;;10.75;6.10;;;;;;;;;;5054393;28;20063;-77
2022/06/22 12:51:09;;;;;;;6.28;5.38;;;;;;;;;;5071285;28;20056;-75
2022/06/22 12:53:51;;;;;;;9.52;5.68;;;;;;;;;;5054793;28;20048;-76
2022/06/22 12:56:24;;;;;;;8.80;5.63;;;;;;;;;;5070938;28;20160;-75
2022/06/22 12:58:55;;;;;;;9.15;5.07;;;;;;;;;;5053933;28;20040;-74
2022/06/22 13:01:21;;;;;;;9.05;5.00;;;;;;;;;;5051426;28;20044;-75
2022/06/22 13:03:53;;;;;;;8.38;5.97;;;;;;;;;;5072033;28;20101;-76
2022/06/22 13:06:20;;;;;;;9.93;5.50;;;;;;;;;;5087061;28;20108;-76
2022/06/22 13:08:46;;;;;;;6.93;5.35;;;;;;;;;;5086767;28;20051;-74
2022/06/22 13:11:17;;;;;;;10.70;6.50;;;;;;;;;;5086966;28;20070;-73
2022/06/22 13:13:53;;;;;;;8.60;5.30;;;;;;;;;;5069828;28;20112;-75
2022/06/22 13:16:38;;;;;;;9.68;6.25;;;;;;;;;;5069682;28;20048;-76
2022/06/22 13:19:17;;;;;;;10.00;7.20;;;;;;;;;;5086400;28;20123;-76
2022/06/22 13:21:54;;;;;;;10.73;7.38;;;;;;;;;;5069979;28;20075;-74
2022/06/22 13:24:34;;;;;;;10.38;6.55;;;;;;;;;;5086881;28;20048;-74
2022/06/22 13:27:00;;;;;;;10.88;6.80;;;;;;;;;;5086779;28;20051;-75
2022/06/22 13:29:48;;;;;;;11.23;6.03;;;;;;;;;;5069701;28;20442;-75
2022/06/22 13:32:14;;;;;;;10.90;6.82;;;;;;;;;;5086794;28;20047;-76
2022/06/22 13:34:50;;;;;;;10.07;6.88;;;;;;;;;;5086646;28;20136;-74
2022/06/22 13:37:19;;;;;;;9.35;6.97;;;;;;;;;;5086608;28;20065;-75
2022/06/22 13:39:51;;;;;;;9.40;6.70;;;;;;;;;;5070742;28;20048;-76
2022/06/22 13:42:27;;;;;;;9.13;6.30;;;;;;;;;;5073142;28;20150;-75
2022/06/22 13:45:08;;;;;;;10.05;6.88;;;;;;;;;;5090494;28;20036;-75
2022/06/22 13:47:37;;;;;;;8.20;6.40;;;;;;;;;;5090350;28;20036;-76
2022/06/22 13:50:30;;;;;;;12.05;7.13;;;;;;;;;;5090031;28;20138;-75
2022/06/22 13:53:11;;;;;;;7.07;5.45;;;;;;;;;;5073272;28;20455;-75
2022/06/22 13:55:41;;;;;;;10.05;5.78;;;;;;;;;;5090352;28;20055;-73
2022/06/22 13:58:24;;;;;;;9.20;5.80;;;;;;;;;;5073234;28;20044;-77
2022/06/22 14:00:54;;;;;;;8.73;6.07;;;;;;;;;;5073244;28;20531;-75
2022/06/22 14:03:37;;;;;;;7.50;5.05;;;;;;;;;;5072860;28;20040;-76
2022/06/22 14:06:21;;;;;;;9.55;5.00;;;;;;;;;;5072504;28;20044;-76
2022/06/22 14:08:53;;;;;;;9.10;5.70;;;;;;;;;;5089879;28;20059;-76
2022/06/22 14:11:30;;;;;;;8.65;6.10;;;;;;;;;;5073114;28;20040;-77
2022/06/22 14:14:02;;;;;;;9.57;5.72;;;;;;;;;;5072761;28;20044;-74
2022/06/22 14:16:33;;;;;;;7.05;4.63;;;;;;;;;;5072730;28;20072;-74
2022/06/22 14:18:59;;;;;;;8.82;5.95;;;;;;;;;;5072486;28;20067;-75
2022/06/22 14:21:30;;;;;;;9.45;6.10;;;;;;;;;;5072663;28;20128;-75
2022/06/22 14:23:56;;;;;;;8.77;4.45;;;;;;;;;;5072657;28;20508;-75
2022/06/22 14:26:25;;;;;;;11.55;4.93;;;;;;;;;;5072309;28;20044;-75
2022/06/22 14:28:54;;;;;;;8.43;4.97;;;;;;;;;;5072572;28;20063;-76
2022/06/22 14:31:25;;;;;;;8.10;4.85;;;;;;;;;;5090405;28;20051;-77
2022/06/22 14:33:53;;;;;;;6.38;4.80;;;;;;;;;;5085535;28;20092;-76
2022/06/22 14:36:32;;;;;;;7.05;4.38;;;;;;;;;;5093878;28;20043;-77
2022/06/22 14:39:17;;;;;;;6.80;5.07;;;;;;;;;;5094155;28;20056;-76
2022/06/22 14:41:50;;;;;;;7.88;5.65;;;;;;;;;;5094199;28;20099;-73
2022/06/22 14:44:16;;;;;;;9.65;5.82;;;;;;;;;;5109532;28;20529;-77
2022/06/22 14:46:47;;;;;;;8.43;5.70;;;;;;;;;;5110379;28;20082;-76
2022/06/22 14:49:23;;;;;;;9.80;5.97;;;;;;;;;;5093416;28;20107;-77
2022/06/22 14:51:55;;;;;;;9.25;5.65;;;;;;;;;;5091428;28;20044;-77
2022/06/22 14:54:40;;;;;;;6.18;4.05;;;;;;;;;;5092172;28;20039;-77
2022/06/22 14:57:25;;;;;;;8.25;4.85;;;;;;;;;;5109091;28;20466;-76
2022/06/22 14:59:51;;;;;;;8.70;4.68;;;;;;;;;;5093871;28;20043;-75
2022/06/22 15:02:17;;;;;;;11.02;5.50;;;;;;;;;;5089276;28;20075;-75
2022/06/22 15:04:46;;;;;;;9.43;6.03;;;;;;;;;;5080685;28;20078;-76
2022/06/22 15:07:16;;;;;;;7.18;5.03;;;;;;;;;;5086957;28;20032;-77
2022/06/22 15:09:42;;;;;;;;;;;;;;;;;;5074048;28;20090;-75
2022/06/22 15:15:17;;;;;;;11.98;4.85;;;;;;;;;;5090404;28;20055;-80
2022/06/22 15:17:43;;;;;;;7.22;4.63;;;;;;;;;;5080331;28;20407;-77
2022/06/22 15:20:28;;;;;;;7.30;4.63;;;;;;;;;;5089096;28;20134;-76
2022/06/22 15:23:06;;;;;;;10.13;6.68;;;;;;;;;;5072073;28;20044;-77
2022/06/22 15:25:32;;;;;;;9.80;4.93;;;;;;;;;;5088268;28;20044;-76
2022/06/22 15:28:18;;;;;;;8.55;5.20;;;;;;;;;;5071866;28;20043;-75
2022/06/22 15:30:49;;;;;;;10.25;4.95;;;;;;;;;;5091928;28;20040;-77
2022/06/22 15:33:15;;;;;;;;;;;;;;;;;;5075638;28;20412;-74
2022/06/22 15:35:41;;;;;;;9.60;5.45;;;;;;;;;;5075369;28;19916;-76
2022/06/22 15:38:15;;;;;;;7.13;4.55;;;;;;;;;;5074896;28;20047;-75
2022/06/22 15:40:51;;;;;;;8.13;5.32;;;;;;;;;;5092526;28;20044;-76